Time;durP1;ratioP1;P1;durP2;ratioP2;P2;SDS_P1;SDS_P2;PMS_P1;PMS_P2;Temp;Humidity;BMP_temperature;BMP_pressure;BME280_temperature;BME280_humidity;BME280_pressure;Samples;Min_cycle;Max_cycle;Signal;HPM_P1;HPM_P2
2022/01/15 00:00:50;;;;;;;25.23;8.23;;;;;;;1.91;95.79;101934.44;4900936;29;20277;-76
2022/01/15 00:03:15;;;;;;;30.97;8.17;;;;;;;1.93;95.84;101936.97;4900789;29;20280;-76
2022/01/15 00:05:41;;;;;;;27.65;7.57;;;;;;;2.00;95.86;101924.91;4900550;29;20261;-76
2022/01/15 00:08:06;;;;;;;26.95;8.38;;;;;;;1.98;95.31;101922.38;4900769;29;20052;-76
2022/01/15 00:10:32;;;;;;;26.92;9.45;;;;;;;2.04;95.60;101926.41;4901010;29;20155;-76
2022/01/15 00:12:59;;;;;;;28.63;7.68;;;;;;;1.94;95.61;101934.22;4900521;29;20088;-76
2022/01/15 00:15:30;;;;;;;27.77;7.35;;;;;;;1.85;95.33;101926.91;4900694;29;20036;-76
2022/01/15 00:17:59;;;;;;;29.52;7.57;;;;;;;1.83;95.97;101930.63;4900277;29;20064;-76
2022/01/15 00:20:26;;;;;;;25.23;8.40;;;;;;;1.90;95.75;101926.56;4900188;29;20043;-76
2022/01/15 00:22:54;;;;;;;32.63;8.05;;;;;;;1.87;96.16;101913.50;4900554;29;20040;-76
2022/01/15 00:25:22;;;;;;;36.15;9.60;;;;;;;1.91;95.62;101910.50;4900256;29;20443;-76
2022/01/15 00:27:48;;;;;;;31.15;9.60;;;;;;;1.81;95.72;101914.78;4900594;29;20433;-76
2022/01/15 00:30:15;;;;;;;28.67;10.55;;;;;;;1.93;95.99;101916.56;4900448;29;20040;-76
2022/01/15 00:32:41;;;;;;;24.13;8.23;;;;;;;1.81;95.37;101919.25;4900322;29;20033;-76
2022/01/15 00:35:08;;;;;;;28.85;8.70;;;;;;;1.89;95.69;101915.09;4900261;29;20031;-76
2022/01/15 00:37:34;;;;;;;32.65;9.55;;;;;;;1.96;95.36;101916.34;4899936;29;20048;-76
2022/01/15 00:40:01;;;;;;;26.67;10.63;;;;;;;1.80;96.09;101921.06;4899935;29;20064;-75
2022/01/15 00:42:28;;;;;;;25.05;9.27;;;;;;;1.96;95.51;101911.03;4900135;29;20467;-75
2022/01/15 00:44:55;;;;;;;28.50;8.82;;;;;;;1.86;95.88;101902.00;4899933;29;20116;-75
2022/01/15 00:47:21;;;;;;;32.65;6.53;;;;;;;1.77;94.97;101897.38;4900182;29;20460;-75
2022/01/15 00:49:46;;;;;;;25.92;6.65;;;;;;;1.74;95.43;101903.78;4900048;29;20035;-75
2022/01/15 00:52:12;;;;;;;31.15;7.18;;;;;;;1.78;95.65;101899.09;4883116;29;20040;-75
2022/01/15 00:54:37;;;;;;;27.42;8.30;;;;;;;1.74;95.72;101889.63;4899703;29;20059;-75
2022/01/15 00:57:03;;;;;;;27.40;8.05;;;;;;;1.82;95.45;101889.91;4899857;29;20570;-75
2022/01/15 00:59:28;;;;;;;22.17;8.23;;;;;;;1.74;95.51;101881.66;4899732;29;20033;-75
2022/01/15 01:01:53;;;;;;;25.37;7.70;;;;;;;1.78;95.41;101895.59;4899595;29;20048;-76
2022/01/15 01:04:19;;;;;;;26.60;8.32;;;;;;;1.87;95.01;101894.88;4883038;29;20040;-76
2022/01/15 01:06:44;;;;;;;17.80;6.38;;;;;;;1.71;95.73;101887.19;4899402;29;20428;-75
2022/01/15 01:09:10;;;;;;;17.30;6.60;;;;;;;1.78;95.19;101879.63;4899660;29;20036;-75
2022/01/15 01:11:54;;;;;;;22.88;7.35;;;;;;;1.82;95.51;101876.63;4899388;29;20396;-75
2022/01/15 01:25:16;;;;;;;22.48;8.50;;;;;;;1.96;94.92;101860.53;4899416;29;20046;-75
2022/01/15 01:27:48;;;;;;;19.80;6.60;;;;;;;2.03;95.03;101861.75;4898289;29;20032;-76
2022/01/15 01:30:25;;;;;;;29.08;8.13;;;;;;;1.99;94.41;101851.44;4899260;29;20033;-75
2022/01/15 01:36:02;;;;;;;21.92;7.18;;;;;;;1.79;94.65;101847.63;4877389;29;19998;-75
2022/01/15 01:39:06;;;;;;;28.20;8.73;;;;;;;1.83;94.96;101842.91;4899197;29;20039;-75
2022/01/15 01:41:21;;;;;;;29.98;8.75;;;;;;;1.94;94.79;101843.84;4896008;29;20484;-75
2022/01/15 01:43:59;;;;;;;25.25;7.50;;;;;;;1.90;94.74;101841.50;4898980;29;20028;-76
2022/01/15 01:48:51;;;;;;;25.52;8.55;;;;;;;1.96;95.13;101846.38;4898933;29;20037;-75
2022/01/15 01:51:33;;;;;;;20.67;6.43;;;;;;;1.98;94.64;101842.63;4898871;29;20033;-75
2022/01/15 01:54:01;;;;;;;26.98;7.60;;;;;;;1.93;94.58;101836.81;4899079;29;20140;-76
2022/01/15 01:56:27;;;;;;;26.08;7.80;;;;;;;1.98;94.68;101847.09;4881927;29;20037;-76
2022/01/15 01:58:52;;;;;;;29.10;7.53;;;;;;;2.07;94.36;101844.59;4898713;29;20025;-76
2022/01/15 02:01:17;;;;;;;24.15;7.45;;;;;;;2.06;94.11;101842.06;4898892;29;20040;-76
2022/01/15 02:03:43;;;;;;;30.73;8.00;;;;;;;2.10;94.67;101830.25;4898397;29;20067;-76
2022/01/15 02:06:08;;;;;;;19.08;6.95;;;;;;;2.03;94.73;101836.97;4898700;29;20255;-75
2022/01/15 02:08:35;;;;;;;25.38;7.15;;;;;;;2.11;94.35;101828.44;4898733;29;20076;-76
2022/01/15 02:11:03;;;;;;;29.02;5.95;;;;;;;2.15;93.79;101822.72;4898588;29;20123;-76
2022/01/15 02:13:29;;;;;;;20.63;7.18;;;;;;;2.21;93.74;101822.28;4898737;29;20380;-75
2022/01/15 02:15:59;;;;;;;;;;;;;;;2.16;93.84;101826.25;4898968;29;20490;-76
2022/01/15 02:18:25;;;;;;;22.65;7.45;;;;;;;2.04;94.46;101828.03;4898225;29;19930;-77
2022/01/15 02:23:32;;;;;;;23.55;7.00;;;;;;;2.15;94.21;101825.41;4898226;29;20088;-75
2022/01/15 02:23:50;;;;;;;24.10;7.97;;;;;;;2.16;93.89;101828.91;4897976;29;20041;-75
2022/01/15 02:26:23;;;;;;;24.30;7.32;;;;;;;2.24;93.72;101827.38;4898134;29;20048;-76
2022/01/15 02:28:59;;;;;;;22.75;6.65;;;;;;;2.21;93.47;101819.63;4898370;29;20376;-75
2022/01/15 02:31:26;;;;;;;17.73;4.63;;;;;;;2.29;93.55;101821.72;4898382;29;20040;-76
2022/01/15 02:33:55;;;;;;;27.85;7.18;;;;;;;2.23;93.55;101820.34;4898525;29;20379;-76
2022/01/15 02:36:23;;;;;;;21.88;6.85;;;;;;;2.27;93.42;101819.16;4897863;29;20039;-76
2022/01/15 02:38:50;;;;;;;13.38;5.45;;;;;;;2.29;93.20;101824.38;4898099;29;20035;-75
2022/01/15 02:41:43;;;;;;;20.05;6.53;;;;;;;2.33;93.04;101816.00;4898179;29;20092;-75
2022/01/15 02:44:16;;;;;;;19.83;6.57;;;;;;;2.34;92.84;101817.72;4897256;29;20067;-76
2022/01/15 02:49:13;;;;;;;19.55;7.93;;;;;;;2.27;93.45;101811.19;4899182;29;20068;-76
2022/01/15 02:51:39;;;;;;;18.85;6.35;;;;;;;2.33;93.17;101799.25;4902886;29;20091;-75
2022/01/15 02:54:05;;;;;;;18.98;6.90;;;;;;;2.52;92.69;101795.97;4903039;29;20032;-75
2022/01/15 02:56:43;;;;;;;17.27;7.07;;;;;;;2.41;92.60;101797.66;4901209;29;20044;-76
2022/01/15 02:59:14;;;;;;;18.25;6.80;;;;;;;2.43;92.93;101798.41;4897904;29;20479;-76
2022/01/15 03:01:39;;;;;;;14.95;5.50;;;;;;;2.43;93.00;101795.75;4898416;29;20407;-76
2022/01/15 03:04:05;;;;;;;20.48;7.03;;;;;;;2.27;92.99;101781.94;4897828;29;20037;-76
2022/01/15 03:06:30;;;;;;;14.73;5.45;;;;;;;2.41;92.64;101781.72;4898285;29;20036;-76
2022/01/15 03:08:55;;;;;;;20.43;6.67;;;;;;;2.32;92.87;101781.59;4898177;29;20076;-76
2022/01/15 03:11:22;;;;;;;16.53;6.37;;;;;;;2.39;92.98;101767.69;4897998;29;20264;-75
2022/01/15 03:13:47;;;;;;;18.42;5.80;;;;;;;2.30;93.21;101764.91;4881160;29;20269;-75
2022/01/15 03:16:15;;;;;;;13.45;5.25;;;;;;;2.40;93.24;101758.72;4897867;29;20037;-75
2022/01/15 03:18:41;;;;;;;19.35;6.93;;;;;;;2.35;92.79;101752.91;4880602;29;20041;-75
2022/01/15 03:21:06;;;;;;;;;;;;;;;2.47;92.75;101771.56;4898528;29;20092;-76
2022/01/15 03:23:32;;;;;;;15.32;5.88;;;;;;;2.42;92.83;101761.28;4897520;29;20263;-75
2022/01/15 03:25:57;;;;;;;17.80;5.93;;;;;;;2.28;93.29;101753.53;4897709;29;20107;-76
2022/01/15 03:28:23;;;;;;;16.85;6.07;;;;;;;2.37;93.28;101748.31;4897536;29;20044;-76
2022/01/15 03:30:48;;;;;;;14.20;5.75;;;;;;;2.40;93.14;101752.56;4897471;29;20065;-75
2022/01/15 03:33:14;;;;;;;17.92;5.47;;;;;;;2.42;93.26;101751.47;4897654;29;20080;-76
2022/01/15 03:35:39;;;;;;;16.13;4.75;;;;;;;2.37;93.50;101743.00;4880852;29;20075;-75
2022/01/15 03:38:06;;;;;;;17.10;5.60;;;;;;;2.38;93.34;101736.72;4897314;29;20124;-75
2022/01/15 03:40:33;;;;;;;16.55;6.07;;;;;;;2.39;93.14;101738.41;4897395;29;20377;-76
2022/01/15 03:42:58;;;;;;;16.63;4.72;;;;;;;2.44;92.91;101736.25;4897350;29;20045;-75
2022/01/15 03:45:24;;;;;;;18.95;7.05;;;;;;;2.39;93.43;101727.78;4897396;29;20029;-76
2022/01/15 03:47:50;;;;;;;15.95;5.38;;;;;;;2.23;94.34;101731.75;4897749;29;20041;-76
2022/01/15 03:50:16;;;;;;;13.82;4.35;;;;;;;2.36;93.82;101727.16;4897748;29;20043;-76
2022/01/15 03:52:42;;;;;;;15.00;5.07;;;;;;;2.50;93.76;101729.63;4897667;29;20039;-75
2022/01/15 03:55:10;;;;;;;15.82;4.70;;;;;;;2.35;93.96;101726.31;4882314;29;20036;-75
2022/01/15 03:57:36;;;;;;;13.65;5.00;;;;;;;2.29;93.99;101718.00;4900701;29;20047;-77
2022/01/15 04:00:04;;;;;;;;;;;;;;;2.24;94.55;101717.50;4901353;29;20416;-75
2022/01/15 04:02:30;;;;;;;11.13;3.63;;;;;;;2.15;94.05;101711.06;4901117;29;20013;-75
2022/01/15 04:04:55;;;;;;;11.00;3.35;;;;;;;2.16;94.15;101712.75;4901121;29;20049;-75
2022/01/15 04:07:20;;;;;;;9.17;3.87;;;;;;;2.07;94.32;101708.16;4900848;29;20048;-75
2022/01/15 04:09:45;;;;;;;8.77;3.43;;;;;;;2.22;94.12;101701.66;4901060;29;20269;-76
2022/01/15 04:12:11;;;;;;;10.30;3.42;;;;;;;2.09;94.11;101692.94;4901088;29;20043;-75
2022/01/15 04:14:36;;;;;;;11.93;3.58;;;;;;;2.09;94.05;101684.97;4883877;29;20040;-75
2022/01/15 04:17:02;;;;;;;10.20;3.03;;;;;;;2.12;94.28;101681.22;4900348;29;20044;-76
2022/01/15 04:19:29;;;;;;;7.85;3.40;;;;;;;2.11;94.15;101676.88;4883846;29;20041;-78
2022/01/15 04:21:54;;;;;;;8.80;3.58;;;;;;;1.94;94.02;101680.84;4900495;29;20037;-75
2022/01/15 04:24:20;;;;;;;8.35;3.45;;;;;;;1.83;94.10;101683.47;4900691;29;20430;-75
2022/01/15 04:26:47;;;;;;;9.40;3.00;;;;;;;1.85;94.61;101692.16;4900639;29;20476;-76
2022/01/15 04:29:15;;;;;;;10.95;3.60;;;;;;;1.82;94.68;101687.94;4900359;29;20068;-76
2022/01/15 04:31:48;;;;;;;12.43;4.75;;;;;;;1.81;94.23;101686.25;4900509;29;20044;-75
2022/01/15 04:34:19;;;;;;;13.20;4.40;;;;;;;1.84;94.37;101677.19;4900092;29;20024;-75
2022/01/15 04:36:45;;;;;;;12.57;3.67;;;;;;;1.80;94.29;101676.56;4900621;29;20068;-75
2022/01/15 04:39:11;;;;;;;13.23;4.20;;;;;;;1.79;94.40;101682.03;4883368;29;20057;-75
2022/01/15 04:41:37;;;;;;;;;;;;;;;1.76;94.36;101676.94;4883881;29;20076;-75
2022/01/15 04:44:04;;;;;;;9.80;3.47;;;;;;;1.76;94.77;101676.94;4900276;29;19911;-75
2022/01/15 04:46:30;;;;;;;12.82;4.35;;;;;;;1.78;94.85;101688.31;4900085;29;20039;-75
2022/01/15 04:48:55;;;;;;;10.65;3.50;;;;;;;1.84;94.50;101683.34;4900202;29;20036;-77
2022/01/15 04:51:21;;;;;;;9.10;3.72;;;;;;;1.81;94.37;101680.06;4883412;29;20520;-75
2022/01/15 04:53:46;;;;;;;10.23;3.70;;;;;;;1.85;94.16;101690.38;4900012;29;20029;-75
2022/01/15 04:56:11;;;;;;;12.85;4.72;;;;;;;1.66;94.59;101682.09;4900028;29;20336;-75
2022/01/15 04:58:37;;;;;;;8.73;4.10;;;;;;;1.70;94.58;101684.41;4899925;29;20041;-73
2022/01/15 05:01:02;;;;;;;15.50;4.10;;;;;;;1.66;94.72;101682.94;4899806;29;20380;-73
2022/01/15 05:03:27;;;;;;;11.35;4.55;;;;;;;1.87;94.38;101679.63;4899861;29;20296;-73
2022/01/15 05:05:53;;;;;;;11.23;3.90;;;;;;;1.81;94.51;101680.94;4898573;29;20044;-73
2022/01/15 05:08:18;;;;;;;12.10;4.13;;;;;;;1.92;94.11;101666.81;4899921;29;20060;-73
2022/01/15 05:10:47;;;;;;;12.73;5.10;;;;;;;1.97;93.30;101676.13;4899550;29;20488;-73
2022/01/15 05:13:20;;;;;;;12.02;4.15;;;;;;;1.88;93.55;101670.69;4899540;29;20081;-73
2022/01/15 05:15:45;;;;;;;9.57;3.53;;;;;;;1.90;93.64;101676.72;4900396;29;20055;-73
2022/01/15 05:18:11;;;;;;;9.05;2.83;;;;;;;1.86;93.08;101673.44;4901886;29;20088;-73
2022/01/15 05:20:41;;;;;;;9.40;3.45;;;;;;;1.88;94.10;101676.00;4901932;29;20036;-73
2022/01/15 05:23:06;;;;;;;10.73;4.10;;;;;;;1.80;93.74;101673.91;4902369;29;20025;-73
2022/01/15 05:25:32;;;;;;;10.43;3.83;;;;;;;1.70;94.19;101664.97;4900323;29;20440;-73
2022/01/15 05:27:57;;;;;;;9.15;3.05;;;;;;;1.60;93.86;101670.16;4901923;29;20303;-73
2022/01/15 05:30:23;;;;;;;7.55;3.05;;;;;;;1.63;94.42;101663.72;4903560;29;20040;-73
2022/01/15 05:32:48;;;;;;;11.70;5.03;;;;;;;1.57;93.58;101667.72;4902429;29;20028;-73
2022/01/15 05:35:13;;;;;;;10.83;3.97;;;;;;;1.49;94.32;101671.91;4900238;29;20399;-72
2022/01/15 05:37:39;;;;;;;10.70;3.80;;;;;;;1.60;93.22;101671.97;4899905;29;20751;-72
2022/01/15 05:40:05;;;;;;;14.02;3.88;;;;;;;1.53;93.76;101665.41;4900032;29;20276;-73
2022/01/15 05:42:31;;;;;;;8.25;3.72;;;;;;;1.46;93.29;101669.47;4899550;29;20068;-73
2022/01/15 05:44:56;;;;;;;10.10;3.22;;;;;;;1.36;93.70;101667.53;4899418;29;20089;-73
2022/01/15 05:47:21;;;;;;;13.93;4.17;;;;;;;1.37;94.21;101677.19;4899762;29;20048;-73
2022/01/15 05:49:47;;;;;;;11.47;4.40;;;;;;;1.33;93.81;101667.75;4899823;29;20268;-74
2022/01/15 05:52:12;;;;;;;10.43;3.67;;;;;;;1.09;94.15;101666.06;4900253;29;20279;-74
2022/01/15 05:54:37;;;;;;;12.02;3.70;;;;;;;1.09;94.47;101669.56;4899763;29;20407;-74
2022/01/15 05:57:03;;;;;;;13.60;4.90;;;;;;;0.98;94.60;101667.72;4899599;29;20116;-74
2022/01/15 05:59:28;;;;;;;9.77;3.60;;;;;;;1.11;94.52;101669.44;4900166;29;20067;-74
2022/01/15 06:01:54;;;;;;;13.88;4.43;;;;;;;0.97;94.66;101668.69;4899910;29;20055;-74
2022/01/15 06:04:19;;;;;;;10.25;4.60;;;;;;;1.08;94.26;101664.38;4900037;29;20464;-74
2022/01/15 06:06:44;;;;;;;11.98;3.50;;;;;;;0.93;94.54;101658.38;4899236;29;20111;-74
2022/01/15 06:09:10;;;;;;;11.43;3.63;;;;;;;0.84;95.07;101667.88;4899344;29;20104;-74
2022/01/15 06:11:37;;;;;;;8.32;2.60;;;;;;;1.02;95.27;101665.69;4898997;29;20037;-74
2022/01/15 06:14:02;;;;;;;9.63;3.45;;;;;;;0.82;95.53;101675.09;4899445;29;20029;-74
2022/01/15 06:16:27;;;;;;;9.68;3.08;;;;;;;0.83;95.38;101674.16;4882072;29;20032;-74
2022/01/15 06:18:53;;;;;;;14.57;3.43;;;;;;;0.88;94.86;101679.97;4897911;29;20425;-74
2022/01/15 06:21:18;;;;;;;7.95;3.67;;;;;;;0.89;95.33;101683.47;4898744;29;20268;-74
2022/01/15 06:23:44;;;;;;;12.32;3.63;;;;;;;0.84;94.67;101677.66;4898130;29;20047;-74
2022/01/15 06:26:09;;;;;;;9.55;3.65;;;;;;;0.74;95.17;101682.75;4898326;29;20068;-75
2022/01/15 06:28:35;;;;;;;10.50;3.17;;;;;;;0.74;95.88;101677.44;4898126;29;20464;-75
2022/01/15 06:31:00;;;;;;;13.75;3.97;;;;;;;0.83;94.94;101665.34;4898323;29;20033;-75
2022/01/15 06:33:25;;;;;;;13.65;4.25;;;;;;;0.62;95.43;101667.75;4881703;29;20033;-74
2022/01/15 06:35:51;;;;;;;14.35;4.47;;;;;;;0.75;95.77;101668.53;4898249;29;20028;-75
2022/01/15 06:38:16;;;;;;;15.10;5.22;;;;;;;0.86;94.82;101670.44;4898600;29;20532;-76
2022/01/15 06:40:41;;;;;;;15.57;4.85;;;;;;;0.66;95.42;101669.22;4898668;29;20039;-75
2022/01/15 06:43:07;;;;;;;17.77;5.43;;;;;;;0.60;95.89;101667.84;4881681;29;20092;-75
2022/01/15 06:45:33;;;;;;;10.70;4.28;;;;;;;0.63;95.81;101669.44;4898047;29;20369;-75
2022/01/15 06:47:59;;;;;;;11.70;3.60;;;;;;;0.58;95.60;101663.59;4898302;29;20033;-75
2022/01/15 06:50:25;;;;;;;15.80;4.03;;;;;;;0.52;95.87;101661.41;4898365;29;20040;-75
2022/01/15 06:52:51;;;;;;;9.68;3.45;;;;;;;0.50;96.44;101668.63;4898205;29;20032;-74
2022/01/15 06:55:17;;;;;;;11.48;2.88;;;;;;;0.45;96.61;101660.16;4897902;29;20054;-75
2022/01/15 06:57:43;;;;;;;10.77;3.40;;;;;;;0.40;97.08;101663.13;4898281;29;20044;-74
2022/01/15 07:00:10;;;;;;;13.73;3.47;;;;;;;0.49;96.69;101665.13;4897941;29;20040;-74
2022/01/15 07:02:36;;;;;;;12.30;4.13;;;;;;;0.59;96.40;101662.66;4898023;29;20036;-74
2022/01/15 07:05:02;;;;;;;12.98;3.80;;;;;;;0.60;96.27;101656.38;4898094;29;20040;-74
2022/01/15 07:07:28;;;;;;;9.55;2.92;;;;;;;0.55;96.41;101655.88;4897959;29;20101;-74
2022/01/15 07:09:54;;;;;;;13.38;4.00;;;;;;;0.45;96.48;101663.66;4898040;29;20059;-74
2022/01/15 07:12:20;;;;;;;15.05;4.30;;;;;;;0.53;96.40;101652.50;4898016;29;20116;-74
2022/01/15 07:14:45;;;;;;;19.20;4.60;;;;;;;0.45;96.63;101660.16;4897603;29;20060;-74
2022/01/15 07:17:11;;;;;;;13.52;4.55;;;;;;;0.52;96.28;101656.09;4897757;29;20060;-74
2022/01/15 07:19:37;;;;;;;11.93;4.03;;;;;;;0.57;95.72;101646.84;4897677;29;20036;-74
2022/01/15 07:22:03;;;;;;;14.07;3.72;;;;;;;0.36;96.08;101650.22;4897849;29;20036;-74
2022/01/15 07:24:29;;;;;;;13.70;3.92;;;;;;;0.20;96.42;101650.41;4897912;29;20051;-74
2022/01/15 07:26:54;;;;;;;10.15;4.43;;;;;;;0.41;96.36;101646.25;4880959;29;20109;-74
2022/01/15 07:29:20;;;;;;;9.20;3.45;;;;;;;0.32;96.59;101638.97;4898110;29;20036;-74
2022/01/15 07:31:46;;;;;;;11.88;3.55;;;;;;;0.42;96.66;101645.28;4902584;29;20028;-74
2022/01/15 07:34:13;;;;;;;10.15;4.22;;;;;;;0.33;96.50;101644.16;4901421;29;20033;-74
2022/01/15 07:36:39;;;;;;;12.63;3.92;;;;;;;0.36;96.67;101639.59;4901622;29;20033;-75
2022/01/15 07:39:05;;;;;;;12.07;3.88;;;;;;;0.50;96.98;101636.81;4901220;29;20032;-74
2022/01/15 07:41:32;;;;;;;15.75;4.22;;;;;;;0.44;96.83;101627.47;4900899;29;20475;-74
2022/01/15 07:43:57;;;;;;;11.02;4.18;;;;;;;0.45;96.95;101631.81;4901513;29;20413;-74
2022/01/15 07:46:23;;;;;;;14.60;4.15;;;;;;;0.39;97.00;101628.75;4901368;29;20038;-74
2022/01/15 07:48:48;;;;;;;13.27;4.20;;;;;;;0.41;96.97;101629.50;4902171;29;20092;-76
2022/01/15 07:51:13;;;;;;;10.43;3.55;;;;;;;0.35;97.38;101628.16;4901101;29;20051;-75
2022/01/15 07:53:39;;;;;;;13.20;4.85;;;;;;;0.32;97.23;101626.56;4901213;29;20041;-75
2022/01/15 07:56:04;;;;;;;14.63;5.07;;;;;;;0.34;97.04;101634.41;4901122;29;20140;-75
2022/01/15 07:58:30;;;;;;;10.70;4.38;;;;;;;0.28;96.96;101633.03;4900772;29;20119;-74
2022/01/15 08:00:55;;;;;;;13.07;4.43;;;;;;;0.21;97.03;101623.81;4900751;29;20044;-77
2022/01/15 08:03:20;;;;;;;14.67;4.50;;;;;;;0.35;96.95;101622.84;4901077;29;20261;-74
2022/01/15 08:05:46;;;;;;;13.63;4.73;;;;;;;0.48;96.90;101622.81;4900888;29;20276;-74
2022/01/15 08:08:11;;;;;;;13.18;5.03;;;;;;;0.56;96.99;101621.28;4900509;29;20307;-74
2022/01/15 08:10:36;;;;;;;10.55;4.57;;;;;;;0.50;96.58;101615.59;4884002;29;20365;-76
2022/01/15 08:13:02;;;;;;;15.30;4.93;;;;;;;0.30;96.68;101615.22;4901115;29;20072;-75
2022/01/15 08:15:28;;;;;;;8.43;3.75;;;;;;;0.41;96.87;101621.53;4900818;29;20037;-75
2022/01/15 08:17:54;;;;;;;12.93;3.75;;;;;;;0.39;96.73;101615.50;4900498;29;20092;-75
2022/01/15 08:20:19;;;;;;;15.18;4.25;;;;;;;0.32;96.51;101623.06;4900702;29;20120;-75
2022/01/15 08:22:47;;;;;;;13.82;4.13;;;;;;;0.41;96.99;101609.13;4883633;29;20092;-75
2022/01/15 08:25:16;;;;;;;16.92;4.55;;;;;;;0.45;96.37;101615.06;4900347;29;20047;-74
2022/01/15 08:27:41;;;;;;;16.50;4.78;;;;;;;0.50;96.52;101613.78;4900496;29;20033;-76
2022/01/15 08:30:08;;;;;;;16.40;6.30;;;;;;;0.64;96.30;101618.09;4883632;29;20041;-74
2022/01/15 08:32:34;;;;;;;12.70;4.22;;;;;;;0.47;96.13;101623.75;4901590;29;20491;-75
2022/01/15 08:34:59;;;;;;;16.10;6.07;;;;;;;0.62;96.32;101620.84;4900120;29;20131;-74
2022/01/15 08:37:25;;;;;;;12.48;4.65;;;;;;;0.66;96.69;101624.13;4900104;29;20395;-75
2022/01/15 08:39:50;;;;;;;15.55;4.82;;;;;;;0.78;96.09;101620.56;4899846;29;20580;-74
2022/01/15 08:42:15;;;;;;;13.55;4.20;;;;;;;0.63;96.32;101629.66;4900189;29;20033;-74
2022/01/15 08:44:43;;;;;;;17.77;5.15;;;;;;;0.66;96.66;101618.81;4900548;29;20084;-77
2022/01/15 08:47:09;;;;;;;18.23;5.43;;;;;;;0.69;95.97;101613.31;4900428;29;20037;-76
2022/01/15 08:49:35;;;;;;;20.00;6.68;;;;;;;0.61;96.14;101610.34;4900111;29;20491;-76
2022/01/15 08:52:01;;;;;;;;;;;;;;;0.66;96.11;101617.00;4900934;29;20032;-76
2022/01/15 08:54:26;;;;;;;10.40;4.40;;;;;;;0.63;96.13;101616.38;4900410;29;19915;-76
2022/01/15 08:56:52;;;;;;;13.38;4.65;;;;;;;0.54;95.96;101623.19;4900240;29;20037;-76
2022/01/15 08:59:18;;;;;;;16.05;4.55;;;;;;;0.55;95.73;101616.94;4903695;29;20068;-77
2022/01/15 09:01:44;;;;;;;9.82;3.45;;;;;;;0.57;96.29;101624.78;4887201;29;20039;-77
2022/01/15 09:04:09;;;;;;;15.77;5.88;;;;;;;0.60;96.01;101625.41;4903904;29;20036;-77
2022/01/15 09:06:35;;;;;;;16.30;5.90;;;;;;;0.67;95.89;101631.13;4900385;29;20476;-77
2022/01/15 09:09:00;;;;;;;17.85;5.25;;;;;;;0.64;95.90;101620.75;4883126;29;20059;-77
2022/01/15 09:11:26;;;;;;;14.80;4.90;;;;;;;0.63;95.82;101619.03;4883127;29;20064;-77
2022/01/15 09:13:51;;;;;;;15.98;4.38;;;;;;;0.58;95.85;101623.81;4899769;29;20135;-76
2022/01/15 09:16:16;;;;;;;16.40;6.22;;;;;;;0.65;95.90;101627.75;4900004;29;20040;-75
2022/01/15 09:18:42;;;;;;;10.15;4.38;;;;;;;0.64;95.63;101618.94;4882585;29;20070;-77
2022/01/15 09:21:08;;;;;;;18.58;5.43;;;;;;;0.56;96.00;101615.13;4899587;29;20392;-77
2022/01/15 09:23:33;;;;;;;11.95;5.10;;;;;;;0.57;95.85;101606.22;4899812;29;20525;-76
2022/01/15 09:25:59;;;;;;;12.18;4.88;;;;;;;0.44;95.40;101610.72;4899780;29;20497;-75
2022/01/15 09:31:10;;;;;;;17.45;5.28;;;;;;;0.38;96.04;101606.69;4899165;29;20043;-77
2022/01/15 09:33:36;;;;;;;29.73;5.47;;;;;;;0.58;96.06;101607.91;4900031;29;20036;-77
2022/01/15 09:36:01;;;;;;;14.85;6.03;;;;;;;0.51;95.84;101609.34;4900184;29;20097;-78
2022/01/15 09:38:27;;;;;;;17.77;4.78;;;;;;;0.39;96.35;101611.03;4899668;29;20045;-75
2022/01/15 09:40:54;;;;;;;15.88;5.18;;;;;;;0.51;96.00;101606.69;4899734;29;20033;-77
2022/01/15 09:43:21;;;;;;;12.70;4.70;;;;;;;0.50;95.81;101605.00;4882596;29;20032;-75
2022/01/15 09:45:46;;;;;;;15.88;4.72;;;;;;;0.57;95.66;101590.31;4882255;29;20080;-77
2022/01/15 09:48:14;;;;;;;15.02;4.28;;;;;;;0.68;95.91;101582.44;4899440;29;20044;-77
2022/01/15 09:50:43;;;;;;;19.40;5.78;;;;;;;0.72;95.54;101585.69;4899713;29;20070;-77
2022/01/15 09:53:10;;;;;;;17.73;5.97;;;;;;;0.88;95.66;101586.25;4899169;29;20033;-78
2022/01/15 09:55:37;;;;;;;16.75;5.95;;;;;;;0.71;95.65;101587.50;4899779;29;20028;-78
2022/01/15 09:58:03;;;;;;;12.23;4.88;;;;;;;0.73;95.49;101582.91;4900288;29;20089;-77
2022/01/15 10:00:30;;;;;;;18.45;5.03;;;;;;;0.75;95.54;101580.16;4899625;29;20040;-77
2022/01/15 10:02:56;;;;;;;13.13;4.07;;;;;;;0.68;95.11;101580.63;4882736;29;20033;-77
2022/01/15 10:05:22;;;;;;;17.40;5.40;;;;;;;0.76;95.71;101573.88;4899277;29;20040;-77
2022/01/15 10:08:16;;;;;;;18.55;5.32;;;;;;;0.64;95.71;101565.03;4899340;29;20132;-77
2022/01/15 10:10:48;;;;;;;15.27;5.22;;;;;;;0.76;95.01;101569.44;4896704;29;20044;-75
2022/01/15 10:13:19;;;;;;;17.35;4.97;;;;;;;0.76;95.27;101573.88;4898270;29;20111;-75
2022/01/15 10:15:48;;;;;;;9.23;4.07;;;;;;;0.71;95.53;101571.59;4881993;29;20454;-75
2022/01/15 10:18:21;;;;;;;11.82;4.10;;;;;;;0.81;94.93;101575.25;4898495;29;20531;-75
2022/01/15 10:20:46;;;;;;;12.52;4.40;;;;;;;0.78;95.20;101572.81;4898418;29;20032;-74
2022/01/15 10:23:20;;;;;;;12.27;3.88;;;;;;;0.73;95.57;101571.44;4898369;29;20551;-75
2022/01/15 10:26:15;;;;;;;17.10;4.57;;;;;;;0.87;95.21;101573.94;4898021;29;20123;-77
2022/01/15 10:28:51;;;;;;;12.90;5.40;;;;;;;0.81;95.45;101567.28;4899381;29;20037;-77
2022/01/15 10:31:30;;;;;;;11.30;4.05;;;;;;;0.90;95.27;101561.28;4881865;29;20044;-77
2022/01/15 10:33:57;;;;;;;19.98;6.20;;;;;;;0.82;95.09;101568.13;4881662;29;20033;-76
2022/01/15 10:36:31;;;;;;;12.82;4.07;;;;;;;0.90;95.81;101560.44;4898609;29;20388;-76
2022/01/15 10:39:18;;;;;;;13.15;4.97;;;;;;;1.00;95.32;101561.44;4882144;29;20028;-77
2022/01/15 10:41:43;;;;;;;18.58;4.70;;;;;;;0.93;95.60;101553.09;4900252;29;20036;-77
2022/01/15 10:44:35;;;;;;;12.05;4.35;;;;;;;0.98;95.15;101550.09;4899329;29;20043;-77
2022/01/15 10:47:06;;;;;;;17.65;5.68;;;;;;;1.10;95.38;101545.66;4898892;29;20036;-77
2022/01/15 10:49:32;;;;;;;15.70;5.80;;;;;;;0.92;95.08;101542.59;4898554;29;20069;-77
2022/01/15 10:52:05;;;;;;;13.05;4.35;;;;;;;0.87;94.79;101537.66;4898064;29;20039;-76
2022/01/15 10:54:31;;;;;;;12.13;4.88;;;;;;;0.90;95.92;101540.06;4881456;29;20035;-76
2022/01/15 10:57:08;;;;;;;16.88;5.28;;;;;;;1.03;94.92;101535.53;4898456;29;20048;-76
2022/01/15 10:59:34;;;;;;;15.98;5.28;;;;;;;1.03;95.12;101540.00;4897911;29;20350;-75
2022/01/15 11:02:18;;;;;;;14.90;4.53;;;;;;;1.14;95.19;101525.91;4898130;29;20043;-75
2022/01/15 11:04:44;;;;;;;12.45;4.47;;;;;;;1.20;94.91;101528.09;4901143;29;20041;-75
2022/01/15 11:07:19;;;;;;;12.10;4.43;;;;;;;1.25;94.89;101528.59;4901902;29;20072;-75
2022/01/15 11:09:47;;;;;;;11.43;4.65;;;;;;;1.12;94.82;101522.50;4902144;29;20041;-73
2022/01/15 11:12:12;;;;;;;14.77;5.80;;;;;;;1.32;94.88;101517.38;4901806;29;20081;-73
2022/01/15 11:14:39;;;;;;;16.58;4.78;;;;;;;1.33;94.46;101515.56;4902307;29;20041;-73
2022/01/15 11:17:05;;;;;;;16.55;4.85;;;;;;;1.31;94.92;101525.44;4885350;29;20107;-75
2022/01/15 11:19:33;;;;;;;11.30;4.78;;;;;;;1.12;94.84;101523.34;4884914;29;20029;-75
2022/01/15 11:21:59;;;;;;;10.25;4.25;;;;;;;1.19;95.22;101532.56;4901761;29;20033;-75
2022/01/15 11:24:25;;;;;;;11.77;4.22;;;;;;;1.19;95.50;101529.91;4901613;29;20364;-74
2022/01/15 11:26:59;;;;;;;12.70;4.50;;;;;;;1.16;95.09;101523.97;4901766;29;20103;-74
2022/01/15 11:29:25;;;;;;;13.25;3.95;;;;;;;1.23;94.77;101525.19;4884841;29;20032;-73
2022/01/15 11:31:53;;;;;;;13.57;5.35;;;;;;;1.27;94.40;101513.34;4901797;29;20033;-74
2022/01/15 11:34:23;;;;;;;15.73;5.18;;;;;;;1.22;94.99;101521.69;4901437;29;20025;-74
2022/01/15 11:36:49;;;;;;;16.27;6.13;;;;;;;1.25;95.14;101513.50;4901596;29;20093;-74
2022/01/15 11:39:18;;;;;;;17.30;5.65;;;;;;;1.35;94.72;101513.63;4884599;29;20033;-74
2022/01/15 11:41:55;;;;;;;14.13;5.20;;;;;;;1.44;94.75;101512.91;4901440;29;20048;-74
2022/01/15 11:44:29;;;;;;;21.02;5.80;;;;;;;1.52;94.76;101515.81;4901335;29;20119;-74
2022/01/15 11:46:57;;;;;;;14.90;4.75;;;;;;;1.57;94.94;101511.00;4884824;29;20119;-74
2022/01/15 11:49:28;;;;;;;16.02;5.38;;;;;;;1.51;94.08;101503.50;4884209;29;20043;-74